Time;durP1;ratioP1;P1;durP2;ratioP2;P2;SDS_P1;SDS_P2;PMS_P1;PMS_P2;Temp;Humidity;BMP_temperature;BMP_pressure;BME280_temperature;BME280_humidity;BME280_pressure;Samples;Min_cycle;Max_cycle;Signal;HPM_P1;HPM_P2
2020/12/09 00:00:21;;;;;;;;;;;22.60;50.00;;;;;;4928414;29;19926;-83
2020/12/09 00:02:48;;;;;;;;;;;22.50;52.30;;;;;;4917786;29;19919;-82
2020/12/09 00:05:15;;;;;;;;;;;22.60;51.20;;;;;;4918769;29;20027;-82
2020/12/09 00:07:42;;;;;;;;;;;22.60;51.60;;;;;;4902544;29;19946;-81
2020/12/09 00:10:10;;;;;;;;;;;22.60;52.70;;;;;;4904640;29;19922;-80
2020/12/09 00:12:38;;;;;;;;;;;22.60;52.00;;;;;;4920266;29;20299;-81
2020/12/09 00:15:07;;;;;;;;;;;22.70;53.00;;;;;;4920458;29;19962;-81
2020/12/09 00:17:33;;;;;;;;;;;22.70;52.30;;;;;;4926105;29;19922;-81
2020/12/09 00:20:00;;;;;;;;;;;22.90;52.80;;;;;;4918292;29;19921;-79
2020/12/09 00:22:27;;;;;;;;;;;22.90;52.70;;;;;;4940121;29;20350;-79
2020/12/09 00:24:53;;;;;;;;;;;23.00;51.70;;;;;;4930912;29;20255;-78
2020/12/09 00:27:20;;;;;;;;;;;23.20;50.60;;;;;;4921206;29;20263;-80
2020/12/09 00:29:48;;;;;;;;;;;23.50;51.00;;;;;;4948732;29;19966;-80
2020/12/09 00:32:16;;;;;;;;;;;23.70;51.20;;;;;;4926094;29;20378;-82
2020/12/09 00:34:43;;;;;;;;;;;23.90;50.50;;;;;;4922774;29;19915;-80
2020/12/09 00:37:09;;;;;;;;;;;24.00;50.60;;;;;;4921961;29;19974;-79
2020/12/09 00:39:36;;;;;;;;;;;24.00;49.50;;;;;;4919550;29;19916;-82
2020/12/09 00:42:03;;;;;;;;;;;24.40;48.30;;;;;;4919695;29;19921;-79
2020/12/09 00:44:31;;;;;;;;;;;24.90;47.40;;;;;;4918725;29;20009;-81
2020/12/09 00:46:58;;;;;;;;;;;25.40;46.40;;;;;;4915487;29;19922;-80
2020/12/09 00:49:24;;;;;;;;;;;25.80;46.50;;;;;;4925002;29;20011;-79
2020/12/09 00:51:51;;;;;;;;;;;25.60;46.30;;;;;;4923211;29;19926;-79
2020/12/09 00:54:19;;;;;;;;;;;25.70;46.10;;;;;;4916918;29;20215;-80
2020/12/09 00:56:46;;;;;;;;;;;26.30;44.70;;;;;;4901658;29;19915;-81
2020/12/09 00:59:13;;;;;;;;;;;25.80;45.20;;;;;;4918260;29;19911;-79
2020/12/09 01:01:39;;;;;;;;;;;26.00;45.60;;;;;;4902860;29;19921;-81
2020/12/09 01:04:15;;;;;;;;;;;26.10;45.60;;;;;;4925999;29;19919;-81
2020/12/09 01:06:41;;;;;;;;;;;26.30;45.10;;;;;;4919477;29;19941;-81
2020/12/09 01:09:09;;;;;;;;;;;26.40;44.70;;;;;;4921133;29;19911;-81
2020/12/09 01:11:36;;;;;;;;;;;26.10;45.70;;;;;;4906945;29;19927;-82
2020/12/09 01:14:03;;;;;;;;;;;25.90;45.10;;;;;;4901893;29;19926;-80
2020/12/09 01:16:30;;;;;;;;;;;26.10;45.70;;;;;;4919082;29;19930;-81
2020/12/09 01:18:56;;;;;;;;;;;26.30;45.80;;;;;;4922570;29;19964;-81
2020/12/09 01:21:27;;;;;;;;;;;26.20;45.70;;;;;;4901825;29;20361;-82
2020/12/09 01:23:53;;;;;;;;;;;26.10;46.10;;;;;;4917871;29;19915;-81
2020/12/09 01:26:20;;;;;;;;;;;26.30;45.40;;;;;;4913475;29;19916;-81
2020/12/09 01:28:47;;;;;;;;;;;26.50;44.60;;;;;;4902718;29;19947;-83
2020/12/09 01:31:22;;;;;;;;;;;26.50;45.60;;;;;;4905537;29;19959;-81
2020/12/09 01:33:49;;;;;;;;;;;26.70;45.30;;;;;;4917709;29;19927;-80
2020/12/09 01:36:23;;;;;;;;;;;26.70;45.20;;;;;;4916933;29;19915;-82
2020/12/09 01:38:50;;;;;;;;;;;26.20;46.00;;;;;;4916516;29;19915;-84
2020/12/09 01:41:18;;;;;;;;;;;26.00;46.90;;;;;;4918331;29;20323;-80
2020/12/09 01:43:50;;;;;;;;;;;25.80;47.90;;;;;;4916006;29;19907;-80
2020/12/09 01:46:18;;;;;;;;;;;25.60;48.00;;;;;;4917013;29;19907;-81
2020/12/09 01:48:45;;;;;;;;;;;25.50;48.10;;;;;;4924156;29;19910;-81
2020/12/09 01:51:13;;;;;;;;;;;24.90;48.40;;;;;;4921584;29;20421;-79
2020/12/09 01:53:41;;;;;;;;;;;24.20;50.60;;;;;;4935995;29;20357;-79
2020/12/09 01:56:08;;;;;;;;;;;24.00;52.20;;;;;;4934158;29;19976;-81
2020/12/09 01:58:34;;;;;;;;;;;23.80;52.40;;;;;;4913806;29;19926;-81
2020/12/09 02:01:01;;;;;;;;;;;23.80;53.00;;;;;;4926341;29;20350;-81
2020/12/09 02:03:29;;;;;;;;;;;23.70;53.30;;;;;;4916860;29;19915;-78
2020/12/09 02:05:56;;;;;;;;;;;23.70;52.60;;;;;;4916322;29;20415;-82
2020/12/09 02:08:23;;;;;;;;;;;23.50;53.60;;;;;;4915534;29;19911;-80
2020/12/09 02:11:03;;;;;;;;;;;23.70;52.50;;;;;;4920039;29;20372;-80
2020/12/09 02:13:31;;;;;;;;;;;23.80;52.50;;;;;;4904972;29;20718;-81
2020/12/09 02:15:58;;;;;;;;;;;23.60;53.20;;;;;;4930574;29;20001;-82
2020/12/09 02:18:28;;;;;;;;;;;23.80;54.20;;;;;;4930385;29;20464;-79
2020/12/09 02:20:54;;;;;;;;;;;23.90;52.60;;;;;;4937505;29;19983;-79
2020/12/09 02:23:21;;;;;;;;;;;23.80;52.70;;;;;;4930901;29;19915;-81
2020/12/09 02:25:49;;;;;;;;;;;23.80;53.50;;;;;;4950451;29;20539;-81
2020/12/09 02:28:16;;;;;;;;;;;23.80;53.20;;;;;;4945792;29;19915;-81
2020/12/09 02:30:45;;;;;;;;;;;23.80;53.00;;;;;;4926043;29;19911;-81
2020/12/09 02:33:12;;;;;;;;;;;23.80;53.50;;;;;;4916868;29;20140;-80
2020/12/09 02:35:39;;;;;;;;;;;23.90;53.40;;;;;;4917772;29;19918;-79
2020/12/09 02:38:05;;;;;;;;;;;23.80;54.30;;;;;;4917138;29;20250;-78
2020/12/09 02:40:32;;;;;;;;;;;23.80;54.00;;;;;;4916917;29;19918;-80
2020/12/09 02:42:59;;;;;;;;;;;23.60;54.50;;;;;;4917501;29;19907;-81
2020/12/09 02:45:26;;;;;;;;;;;23.60;54.00;;;;;;4921423;29;19911;-81
2020/12/09 02:47:53;;;;;;;;;;;23.40;54.70;;;;;;4924376;29;19911;-79
2020/12/09 02:50:21;;;;;;;;;;;23.50;55.50;;;;;;4898728;29;20002;-79
2020/12/09 02:52:47;;;;;;;;;;;23.60;54.90;;;;;;4920046;29;20006;-79
2020/12/09 02:55:19;;;;;;;;;;;23.50;55.70;;;;;;4926088;29;19962;-80
2020/12/09 02:57:47;;;;;;;;;;;23.60;55.50;;;;;;4934861;29;19922;-81
2020/12/09 03:00:15;;;;;;;;;;;23.60;55.10;;;;;;4929001;29;20022;-79
2020/12/09 03:02:45;;;;;;;;;;;23.70;54.70;;;;;;4903870;29;19926;-79
2020/12/09 03:05:12;;;;;;;;;;;23.50;55.90;;;;;;4911303;29;19950;-81
2020/12/09 03:07:41;;;;;;;;;;;23.40;56.30;;;;;;4903445;29;19966;-80
2020/12/09 03:10:09;;;;;;;;;;;23.40;56.10;;;;;;4923714;29;19918;-80
2020/12/09 03:12:36;;;;;;;;;;;23.40;55.40;;;;;;4919692;29;19918;-81
2020/12/09 03:15:03;;;;;;;;;;;23.40;55.40;;;;;;4919208;29;19922;-80
2020/12/09 03:17:30;;;;;;;;;;;23.30;56.00;;;;;;4904924;29;20259;-80
2020/12/09 03:19:57;;;;;;;;;;;23.00;56.10;;;;;;4928946;29;19987;-81
2020/12/09 03:22:26;;;;;;;;;;;23.00;56.10;;;;;;4910994;29;20409;-79
2020/12/09 03:24:54;;;;;;;;;;;23.10;56.20;;;;;;4927288;29;19910;-81
2020/12/09 03:27:21;;;;;;;;;;;23.20;55.70;;;;;;4922815;29;19918;-81
2020/12/09 03:29:50;;;;;;;;;;;23.30;56.60;;;;;;4919507;29;19914;-80
2020/12/09 03:32:17;;;;;;;;;;;23.40;55.30;;;;;;4919879;29;19907;-79
2020/12/09 03:34:49;;;;;;;;;;;23.50;56.30;;;;;;4924185;29;20208;-79
2020/12/09 03:37:16;;;;;;;;;;;23.50;55.40;;;;;;4913628;29;19926;-79
2020/12/09 03:39:43;;;;;;;;;;;23.40;55.90;;;;;;4922532;29;19922;-80
2020/12/09 03:42:09;;;;;;;;;;;23.40;55.60;;;;;;4928104;29;19917;-78
2020/12/09 03:44:36;;;;;;;;;;;23.30;55.10;;;;;;4921645;29;20269;-78
2020/12/09 03:47:09;;;;;;;;;;;23.20;54.90;;;;;;4927864;29;19914;-78
2020/12/09 03:49:36;;;;;;;;;;;23.20;55.20;;;;;;4944977;29;19895;-79
2020/12/09 03:52:03;;;;;;;;;;;23.30;54.80;;;;;;4911675;29;20394;-80
2020/12/09 03:54:30;;;;;;;;;;;23.30;55.20;;;;;;4920448;29;20334;-79
2020/12/09 03:56:59;;;;;;;;;;;23.30;55.80;;;;;;4932100;29;19927;-79
2020/12/09 03:59:27;;;;;;;;;;;23.20;55.00;;;;;;4919994;29;19934;-80
2020/12/09 04:01:53;;;;;;;;;;;23.20;55.70;;;;;;4919835;29;19914;-80
2020/12/09 04:04:20;;;;;;;;;;;23.20;56.70;;;;;;4925530;29;19973;-81
2020/12/09 04:06:47;;;;;;;;;;;23.30;56.00;;;;;;4923019;29;19907;-80
2020/12/09 04:09:13;;;;;;;;;;;23.30;55.50;;;;;;4919059;29;20009;-80
2020/12/09 04:11:42;;;;;;;;;;;23.20;55.50;;;;;;4910619;29;20362;-80
2020/12/09 04:14:09;;;;;;;;;;;23.20;56.20;;;;;;4919394;29;20359;-79
2020/12/09 04:16:37;;;;;;;;;;;23.10;56.50;;;;;;4922177;29;19959;-80
2020/12/09 04:19:05;;;;;;;;;;;23.00;57.60;;;;;;4920693;29;20362;-80
2020/12/09 04:21:32;;;;;;;;;;;23.10;56.90;;;;;;4918884;29;19907;-80
2020/12/09 04:23:58;;;;;;;;;;;23.10;57.40;;;;;;4923410;29;19919;-79
2020/12/09 04:26:25;;;;;;;;;;;23.10;56.80;;;;;;4914345;29;19911;-79
2020/12/09 04:28:53;;;;;;;;;;;23.00;57.10;;;;;;4924070;29;20333;-81
2020/12/09 04:31:20;;;;;;;;;;;22.90;57.10;;;;;;4918760;29;20362;-80
2020/12/09 04:33:56;;;;;;;;;;;22.90;57.30;;;;;;4923383;29;19911;-81
2020/12/09 04:36:23;;;;;;;;;;;23.00;57.50;;;;;;4919172;29;20357;-79
2020/12/09 04:38:50;;;;;;;;;;;22.90;57.60;;;;;;4893270;29;19925;-78
2020/12/09 04:41:17;;;;;;;;;;;22.90;57.50;;;;;;4929178;29;19911;-78
2020/12/09 04:43:43;;;;;;;;;;;22.90;55.70;;;;;;4919742;29;19931;-80
2020/12/09 04:46:13;;;;;;;;;;;22.90;56.20;;;;;;4930794;29;19965;-79
2020/12/09 04:48:42;;;;;;;;;;;22.80;57.10;;;;;;4936439;29;19985;-79
2020/12/09 04:51:09;;;;;;;;;;;22.90;57.20;;;;;;4935379;29;20024;-78
2020/12/09 04:53:36;;;;;;;;;;;22.90;57.00;;;;;;4938837;29;19914;-78
2020/12/09 04:56:03;;;;;;;;;;;22.80;57.90;;;;;;4927548;29;20109;-80
2020/12/09 04:58:39;;;;;;;;;;;22.90;57.80;;;;;;4919739;29;19907;-80
2020/12/09 05:01:09;;;;;;;;;;;23.00;58.10;;;;;;4919806;29;19971;-80
2020/12/09 05:03:47;;;;;;;;;;;23.10;57.20;;;;;;4918776;29;19911;-79
2020/12/09 05:06:15;;;;;;;;;;;22.90;57.40;;;;;;4922411;29;19918;-81
2020/12/09 05:08:54;;;;;;;;;;;22.80;58.30;;;;;;4932437;29;20277;-79
2020/12/09 05:11:22;;;;;;;;;;;22.90;58.30;;;;;;4912152;29;19911;-80
2020/12/09 05:13:53;;;;;;;;;;;22.70;58.00;;;;;;4920964;29;19911;-81
2020/12/09 05:16:20;;;;;;;;;;;22.80;56.70;;;;;;4920474;29;19919;-80
2020/12/09 05:18:47;;;;;;;;;;;22.80;57.40;;;;;;4916834;29;19911;-80
2020/12/09 05:21:16;;;;;;;;;;;22.70;57.30;;;;;;4916582;29;19945;-81
2020/12/09 05:23:44;;;;;;;;;;;22.60;58.40;;;;;;4936120;29;19964;-80
2020/12/09 05:26:12;;;;;;;;;;;22.60;59.30;;;;;;4923402;29;19911;-80
2020/12/09 05:28:38;;;;;;;;;;;22.60;58.50;;;;;;4914634;29;20327;-79
2020/12/09 05:31:05;;;;;;;;;;;22.70;57.60;;;;;;4930219;29;19915;-81
2020/12/09 05:33:32;;;;;;;;;;;22.60;58.60;;;;;;4936371;29;19914;-81
2020/12/09 05:36:03;;;;;;;;;;;22.50;60.10;;;;;;4912479;29;20358;-78
2020/12/09 05:38:30;;;;;;;;;;;22.40;58.10;;;;;;4918548;29;19923;-81
2020/12/09 05:40:58;;;;;;;;;;;22.40;58.80;;;;;;4920841;29;19946;-80
2020/12/09 05:43:25;;;;;;;;;;;22.30;59.60;;;;;;4921469;29;19911;-79
2020/12/09 05:45:51;;;;;;;;;;;22.40;59.60;;;;;;4903966;29;20255;-80
2020/12/09 05:48:19;;;;;;;;;;;22.20;60.30;;;;;;4918627;29;19911;-79
2020/12/09 05:50:51;;;;;;;;;;;22.10;58.70;;;;;;4898961;29;19911;-79
2020/12/09 05:53:18;;;;;;;;;;;22.20;59.20;;;;;;4905705;29;20352;-81
2020/12/09 05:55:48;;;;;;;;;;;22.20;60.00;;;;;;4933901;29;19926;-79
2020/12/09 05:58:45;;;;;;;;;;;22.20;60.00;;;;;;4912586;29;19936;-80
2020/12/09 06:01:13;;;;;;;;;;;22.30;60.50;;;;;;4918025;29;19918;-81
2020/12/09 06:03:41;;;;;;;;;;;22.40;59.50;;;;;;4910300;29;19915;-80
2020/12/09 06:06:10;;;;;;;;;;;22.20;58.60;;;;;;4918227;29;19945;-80
2020/12/09 06:08:38;;;;;;;;;;;22.20;59.10;;;;;;4912617;29;19911;-80
2020/12/09 06:11:05;;;;;;;;;;;22.20;58.60;;;;;;4926713;29;19911;-77
2020/12/09 06:13:35;;;;;;;;;;;22.10;59.90;;;;;;4915378;29;20319;-79
2020/12/09 06:16:05;;;;;;;;;;;22.10;60.90;;;;;;4920393;29;20405;-78
2020/12/09 06:18:33;;;;;;;;;;;22.20;59.90;;;;;;4929716;29;19926;-80
2020/12/09 06:21:00;;;;;;;;;;;22.20;60.80;;;;;;4932785;29;19974;-79
2020/12/09 06:23:27;;;;;;;;;;;22.30;61.00;;;;;;4920037;29;19974;-78
2020/12/09 06:25:58;;;;;;;;;;;22.20;61.40;;;;;;4903286;29;19911;-80
2020/12/09 06:28:26;;;;;;;;;;;22.20;62.40;;;;;;4905184;29;20025;-79
2020/12/09 06:30:54;;;;;;;;;;;22.10;61.70;;;;;;4917867;29;19924;-80
2020/12/09 06:33:32;;;;;;;;;;;22.20;60.90;;;;;;4916849;29;19966;-79
2020/12/09 06:36:12;;;;;;;;;;;22.10;60.70;;;;;;4915442;29;19930;-78
2020/12/09 06:38:39;;;;;;;;;;;22.10;61.10;;;;;;4929008;29;19927;-77
2020/12/09 06:41:06;;;;;;;;;;;22.10;61.40;;;;;;4918614;29;19943;-79
2020/12/09 06:43:33;;;;;;;;;;;22.00;60.40;;;;;;4914907;29;20123;-78
2020/12/09 06:46:00;;;;;;;;;;;21.90;59.80;;;;;;4918386;29;19911;-78
2020/12/09 06:48:36;;;;;;;;;;;21.80;61.80;;;;;;4916208;29;20002;-78
2020/12/09 06:51:23;;;;;;;;;;;21.90;61.50;;;;;;4914269;29;20414;-78
2020/12/09 06:54:09;;;;;;;;;;;21.80;59.60;;;;;;4914323;29;19989;-79
2020/12/09 06:56:36;;;;;;;;;;;21.80;59.30;;;;;;4906419;29;19926;-78
2020/12/09 06:59:21;;;;;;;;;;;21.80;62.40;;;;;;4917454;29;19915;-80
2020/12/09 07:02:03;;;;;;;;;;;21.70;62.90;;;;;;4915551;29;20073;-80
2020/12/09 07:04:48;;;;;;;;;;;21.60;62.90;;;;;;4914273;29;19918;-78
2020/12/09 07:07:30;;;;;;;;;;;21.70;63.40;;;;;;4914882;29;19966;-80
2020/12/09 07:09:57;;;;;;;;;;;21.90;62.90;;;;;;4918587;29;19911;-81
2020/12/09 07:12:24;;;;;;;;;;;21.80;63.30;;;;;;4915491;29;20389;-80
2020/12/09 07:14:52;;;;;;;;;;;21.80;63.70;;;;;;4918254;29;20601;-79
2020/12/09 07:17:21;;;;;;;;;;;21.80;64.30;;;;;;4924998;29;20439;-80
2020/12/09 07:19:49;;;;;;;;;;;21.70;62.90;;;;;;4931837;29;19919;-79
2020/12/09 07:22:16;;;;;;;;;;;21.60;63.70;;;;;;4918302;29;19915;-78
2020/12/09 07:24:43;;;;;;;;;;;21.60;63.70;;;;;;4925610;29;20435;-79
2020/12/09 07:27:12;;;;;;;;;;;21.50;65.20;;;;;;4934258;29;19982;-81
2020/12/09 07:29:43;;;;;;;;;;;21.50;65.90;;;;;;4942451;29;19938;-79
2020/12/09 07:32:10;;;;;;;;;;;21.50;66.30;;;;;;4918457;29;19933;-80
2020/12/09 07:34:56;;;;;;;;;;;21.50;66.60;;;;;;4917813;29;19958;-79
2020/12/09 07:37:24;;;;;;;;;;;21.50;66.30;;;;;;4913363;29;19964;-79
2020/12/09 07:39:53;;;;;;;;;;;21.50;65.60;;;;;;4911642;29;19939;-79
2020/12/09 07:42:23;;;;;;;;;;;21.40;66.20;;;;;;4914396;29;20362;-80
2020/12/09 07:44:51;;;;;;;;;;;21.30;67.30;;;;;;4914350;29;20382;-79
2020/12/09 07:47:24;;;;;;;;;;;21.30;66.80;;;;;;4916690;29;19915;-80
2020/12/09 07:49:52;;;;;;;;;;;21.20;66.70;;;;;;4919686;29;20358;-78
2020/12/09 07:52:26;;;;;;;;;;;21.20;66.80;;;;;;4933510;29;19921;-80
2020/12/09 07:54:53;;;;;;;;;;;21.10;67.00;;;;;;4922187;29;19923;-80
2020/12/09 07:57:21;;;;;;;;;;;21.10;67.80;;;;;;4928399;29;19922;-79
2020/12/09 07:59:48;;;;;;;;;;;21.10;68.10;;;;;;4924469;29;19993;-79
2020/12/09 08:02:18;;;;;;;;;;;21.10;68.50;;;;;;4921194;29;20389;-80
2020/12/09 08:04:45;;;;;;;;;;;21.00;68.00;;;;;;4918188;29;19947;-79
2020/12/09 08:07:16;;;;;;;;;;;21.10;68.90;;;;;;4920967;29;19907;-79
2020/12/09 08:09:43;;;;;;;;;;;21.00;68.60;;;;;;4930939;29;19918;-79
2020/12/09 08:12:10;;;;;;;;;;;21.00;69.00;;;;;;4932309;29;19998;-80
2020/12/09 08:14:37;;;;;;;;;;;21.00;69.30;;;;;;4919189;29;19914;-78
2020/12/09 08:17:23;;;;;;;;;;;21.00;69.60;;;;;;4919123;29;19919;-80
2020/12/09 08:20:19;;;;;;;;;;;21.00;68.60;;;;;;4930628;29;19954;-80
2020/12/09 08:22:51;;;;;;;;;;;21.00;69.40;;;;;;4912287;29;19957;-79
2020/12/09 08:25:18;;;;;;;;;;;21.00;69.80;;;;;;4930324;29;19926;-79
2020/12/09 08:27:46;;;;;;;;;;;21.00;69.90;;;;;;4920241;29;20284;-81
2020/12/09 08:30:17;;;;;;;;;;;20.90;70.70;;;;;;4911597;29;19911;-78
2020/12/09 08:32:58;;;;;;;;;;;20.80;70.20;;;;;;4923323;29;20417;-78
2020/12/09 08:35:26;;;;;;;;;;;20.80;71.00;;;;;;4923413;29;19911;-80
2020/12/09 08:37:52;;;;;;;;;;;20.70;71.20;;;;;;4936641;29;19915;-79
2020/12/09 08:40:19;;;;;;;;;;;20.70;71.40;;;;;;4923336;29;19911;-80
2020/12/09 08:43:01;;;;;;;;;;;20.70;70.90;;;;;;4917620;29;20377;-78
2020/12/09 08:45:28;;;;;;;;;;;20.70;70.50;;;;;;4930488;29;19919;-78
2020/12/09 08:47:55;;;;;;;;;;;20.70;70.40;;;;;;4919063;29;19907;-79
2020/12/09 08:50:21;;;;;;;;;;;20.70;70.40;;;;;;4926499;29;19910;-80
2020/12/09 08:52:48;;;;;;;;;;;20.70;70.40;;;;;;4938105;29;19907;-81
2020/12/09 08:55:15;;;;;;;;;;;20.70;70.50;;;;;;4937337;29;20380;-80
2020/12/09 08:57:41;;;;;;;;;;;20.70;70.40;;;;;;4934969;29;20396;-79
2020/12/09 09:00:10;;;;;;;;;;;20.70;70.50;;;;;;4926367;29;19907;-80
2020/12/09 09:02:38;;;;;;;;;;;20.60;70.70;;;;;;4921011;29;20378;-80
2020/12/09 09:05:06;;;;;;;;;;;20.70;71.10;;;;;;4918020;29;19917;-79
2020/12/09 09:07:32;;;;;;;;;;;20.70;71.30;;;;;;4934024;29;20374;-80
2020/12/09 09:09:59;;;;;;;;;;;20.60;71.30;;;;;;4926417;29;20270;-79
2020/12/09 09:12:26;;;;;;;;;;;20.60;71.10;;;;;;4918763;29;20362;-78
2020/12/09 09:14:52;;;;;;;;;;;20.60;71.00;;;;;;4933916;29;19919;-79
2020/12/09 09:17:19;;;;;;;;;;;20.60;71.30;;;;;;4934536;29;19915;-79
2020/12/09 09:19:46;;;;;;;;;;;20.60;71.50;;;;;;4917816;29;19911;-79
2020/12/09 09:22:13;;;;;;;;;;;20.60;71.80;;;;;;4919800;29;19914;-76
2020/12/09 09:24:40;;;;;;;;;;;20.50;71.80;;;;;;4911238;29;19907;-80
2020/12/09 09:27:13;;;;;;;;;;;20.50;71.90;;;;;;4926644;29;19990;-77
2020/12/09 09:29:40;;;;;;;;;;;20.50;71.80;;;;;;4924853;29;20401;-79
2020/12/09 09:32:06;;;;;;;;;;;20.50;71.90;;;;;;4906918;29;19978;-79
2020/12/09 09:34:33;;;;;;;;;;;20.50;71.70;;;;;;4927747;29;19978;-80
2020/12/09 09:37:00;;;;;;;;;;;20.50;71.50;;;;;;4919809;29;19925;-80
2020/12/09 09:39:27;;;;;;;;;;;20.50;71.60;;;;;;4929137;29;19911;-81
2020/12/09 09:41:57;;;;;;;;;;;20.50;71.80;;;;;;4921950;29;19907;-79
2020/12/09 09:44:24;;;;;;;;;;;20.50;72.30;;;;;;4919979;29;20002;-78
2020/12/09 09:46:51;;;;;;;;;;;20.50;72.40;;;;;;4936234;29;20331;-79
2020/12/09 09:49:18;;;;;;;;;;;20.40;72.50;;;;;;4928277;29;19914;-80
2020/12/09 09:51:44;;;;;;;;;;;20.40;72.80;;;;;;4923835;29;20319;-79
2020/12/09 09:54:11;;;;;;;;;;;20.40;73.00;;;;;;4901716;29;20259;-80
2020/12/09 09:56:41;;;;;;;;;;;20.40;73.10;;;;;;4925423;29;19925;-82
2020/12/09 09:59:08;;;;;;;;;;;20.40;73.40;;;;;;4920634;29;19911;-79
2020/12/09 10:01:34;;;;;;;;;;;20.40;73.60;;;;;;4920783;29;19929;-77
2020/12/09 10:04:02;;;;;;;;;;;20.40;73.60;;;;;;4920587;29;19911;-80
2020/12/09 10:06:30;;;;;;;;;;;20.40;73.80;;;;;;4916676;29;19947;-79
2020/12/09 10:08:56;;;;;;;;;;;20.30;74.00;;;;;;4919056;29;20307;-82
2020/12/09 10:11:23;;;;;;;;;;;20.40;74.10;;;;;;4919514;29;20247;-79
2020/12/09 10:13:51;;;;;;;;;;;20.40;74.10;;;;;;4919598;29;19947;-81
2020/12/09 10:16:23;;;;;;;;;;;20.30;74.30;;;;;;4919724;29;19907;-83
2020/12/09 10:18:50;;;;;;;;;;;20.30;74.40;;;;;;4921343;29;20366;-80
2020/12/09 10:21:30;;;;;;;;;;;20.30;74.50;;;;;;4915490;29;19911;-86
2020/12/09 10:23:58;;;;;;;;;;;20.30;74.20;;;;;;4920231;29;19918;-81
2020/12/09 10:26:28;;;;;;;;;;;20.20;74.20;;;;;;4919321;29;19982;-78
2020/12/09 10:29:07;;;;;;;;;;;20.30;74.20;;;;;;4922558;29;19907;-81
2020/12/09 10:31:33;;;;;;;;;;;20.30;74.20;;;;;;4912663;29;19907;-82
2020/12/09 10:34:01;;;;;;;;;;;20.30;74.30;;;;;;4924575;29;20280;-80
2020/12/09 10:36:28;;;;;;;;;;;20.30;74.40;;;;;;4920357;29;20392;-85
2020/12/09 10:38:54;;;;;;;;;;;20.30;74.60;;;;;;4926185;29;19914;-85
2020/12/09 10:41:21;;;;;;;;;;;20.20;74.50;;;;;;4927296;29;19942;-81
2020/12/09 10:43:54;;;;;;;;;;;20.20;74.90;;;;;;4901483;29;20410;-79
2020/12/09 10:46:40;;;;;;;;;;;20.20;75.00;;;;;;4917640;29;19918;-80
2020/12/09 10:49:12;;;;;;;;;;;20.20;74.90;;;;;;4912229;29;19926;-80
2020/12/09 10:51:49;;;;;;;;;;;20.20;75.20;;;;;;4919861;29;19915;-80
2020/12/09 10:54:15;;;;;;;;;;;20.20;75.20;;;;;;4915643;29;19911;-78
2020/12/09 10:56:42;;;;;;;;;;;20.10;75.20;;;;;;4919105;29;20001;-80
2020/12/09 10:59:10;;;;;;;;;;;20.10;75.30;;;;;;4918897;29;20450;-81
2020/12/09 11:01:37;;;;;;;;;;;20.10;75.30;;;;;;4919447;29;19911;-83
2020/12/09 11:04:04;;;;;;;;;;;20.10;75.50;;;;;;4923806;29;20022;-83
2020/12/09 11:06:35;;;;;;;;;;;20.10;75.50;;;;;;4926020;29;19918;-80
2020/12/09 11:09:04;;;;;;;;;;;20.20;75.60;;;;;;4901273;29;20354;-81
2020/12/09 11:11:31;;;;;;;;;;;20.10;75.70;;;;;;4911684;29;19907;-79
2020/12/09 11:14:02;;;;;;;;;;;20.10;75.10;;;;;;4920662;29;19911;-80
2020/12/09 11:16:29;;;;;;;;;;;20.00;75.60;;;;;;4919754;29;19915;-83
2020/12/09 11:18:55;;;;;;;;;;;20.00;75.50;;;;;;4924884;29;19961;-77
2020/12/09 11:21:23;;;;;;;;;;;20.00;75.60;;;;;;4921332;29;19915;-78
2020/12/09 11:23:59;;;;;;;;;;;20.00;75.80;;;;;;4909076;29;19911;-80
2020/12/09 11:26:27;;;;;;;;;;;20.00;75.90;;;;;;4909957;29;20531;-80
2020/12/09 11:28:54;;;;;;;;;;;20.00;75.80;;;;;;4922193;29;20290;-81
2020/12/09 11:31:21;;;;;;;;;;;20.00;75.90;;;;;;4923898;29;20010;-81
2020/12/09 11:33:48;;;;;;;;;;;20.00;76.00;;;;;;4939887;29;19907;-79
2020/12/09 11:36:15;;;;;;;;;;;20.00;75.70;;;;;;4922442;29;20290;-83
2020/12/09 11:38:42;;;;;;;;;;;20.00;75.70;;;;;;4919970;29;19966;-80
2020/12/09 11:41:08;;;;;;;;;;;20.00;75.70;;;;;;4938076;29;19906;-82
2020/12/09 11:43:35;;;;;;;;;;;19.90;75.80;;;;;;4932918;29;19907;-78
2020/12/09 11:46:02;;;;;;;;;;;19.90;75.80;;;;;;4921997;29;19918;-82
2020/12/09 11:48:28;;;;;;;;;;;19.90;75.80;;;;;;4923593;29;19915;-78
2020/12/09 11:50:58;;;;;;;;;;;19.90;75.80;;;;;;4922779;29;19946;-82
2020/12/09 11:53:25;;;;;;;;;;;19.90;75.70;;;;;;4921991;29;19911;-81
2020/12/09 11:55:52;;;;;;;;;;;19.90;75.80;;;;;;4932895;29;19923;-83
2020/12/09 11:58:19;;;;;;;;;;;19.90;75.70;;;;;;4938480;29;19919;-82
2020/12/09 12:00:45;;;;;;;;;;;19.80;76.10;;;;;;4931881;29;19953;-83
2020/12/09 12:03:16;;;;;;;;;;;19.80;76.00;;;;;;4921849;29;19911;-80
2020/12/09 12:05:45;;;;;;;;;;;19.80;76.00;;;;;;4930023;29;19907;-83
2020/12/09 12:08:15;;;;;;;;;;;19.80;76.20;;;;;;4904698;29;20346;-84
2020/12/09 12:10:42;;;;;;;;;;;19.80;76.20;;;;;;4935688;29;19910;-82
2020/12/09 12:13:08;;;;;;;;;;;19.80;76.20;;;;;;4941495;29;20014;-83
2020/12/09 12:15:36;;;;;;;;;;;19.80;76.20;;;;;;4924759;29;19907;-81
2020/12/09 12:18:03;;;;;;;;;;;19.80;76.40;;;;;;4939614;29;19915;-82
2020/12/09 12:20:30;;;;;;;;;;;19.90;76.50;;;;;;4929533;29;19907;-81
2020/12/09 12:22:56;;;;;;;;;;;19.80;76.20;;;;;;4923727;29;19918;-82
2020/12/09 12:25:23;;;;;;;;;;;19.80;76.50;;;;;;4938438;29;19907;-83
2020/12/09 12:27:50;;;;;;;;;;;19.70;76.60;;;;;;4921792;29;19938;-81
2020/12/09 12:30:16;;;;;;;;;;;19.70;76.80;;;;;;4937531;29;19918;-82
2020/12/09 12:32:44;;;;;;;;;;;19.70;76.90;;;;;;4937400;29;19907;-83
2020/12/09 12:35:11;;;;;;;;;;;19.70;76.90;;;;;;4935586;29;19943;-82
2020/12/09 12:37:37;;;;;;;;;;;19.70;77.10;;;;;;4932045;29;19915;-83
2020/12/09 12:40:04;;;;;;;;;;;19.70;76.90;;;;;;4921199;29;19911;-83
2020/12/09 12:42:32;;;;;;;;;;;19.70;76.90;;;;;;4919732;29;20518;-82
2020/12/09 12:44:58;;;;;;;;;;;19.70;77.20;;;;;;4919264;29;19918;-83
2020/12/09 12:47:25;;;;;;;;;;;19.60;76.90;;;;;;4919558;29;20295;-82
2020/12/09 12:49:52;;;;;;;;;;;19.60;77.10;;;;;;4920004;29;19992;-84
2020/12/09 12:52:19;;;;;;;;;;;19.60;77.40;;;;;;4919329;29;19951;-82
2020/12/09 12:54:46;;;;;;;;;;;19.60;77.40;;;;;;4918923;29;20009;-83
2020/12/09 12:57:12;;;;;;;;;;;19.60;77.40;;;;;;4918578;29;19966;-82
2020/12/09 12:59:40;;;;;;;;;;;19.50;77.70;;;;;;4930339;29;19913;-83
2020/12/09 13:02:06;;;;;;;;;;;19.50;77.50;;;;;;4937123;29;19962;-82
2020/12/09 13:04:33;;;;;;;;;;;19.50;77.70;;;;;;4918533;29;19918;-83
2020/12/09 13:07:01;;;;;;;;;;;19.50;77.80;;;;;;4924844;29;19914;-82
2020/12/09 13:09:27;;;;;;;;;;;19.50;77.90;;;;;;4937691;29;19906;-81
2020/12/09 13:11:54;;;;;;;;;;;19.50;78.00;;;;;;4924912;29;20289;-82
2020/12/09 13:14:21;;;;;;;;;;;19.50;77.80;;;;;;4918456;29;19930;-79
2020/12/09 13:16:48;;;;;;;;;;;19.50;78.00;;;;;;4917793;29;19965;-81
2020/12/09 13:19:15;;;;;;;;;;;19.50;77.80;;;;;;4918021;29;19911;-85
2020/12/09 13:21:42;;;;;;;;;;;19.50;78.10;;;;;;4917818;29;20009;-80
2020/12/09 13:24:09;;;;;;;;;;;19.60;78.00;;;;;;4934395;29;20262;-82
2020/12/09 13:26:37;;;;;;;;;;;19.60;78.00;;;;;;4930132;29;19911;-81
2020/12/09 13:29:04;;;;;;;;;;;19.60;78.00;;;;;;4928984;29;19953;-83
2020/12/09 13:31:37;;;;;;;;;;;19.60;77.90;;;;;;4937313;29;20403;-79
2020/12/09 13:34:09;;;;;;;;;;;19.70;77.80;;;;;;4918808;29;20354;-80
2020/12/09 13:36:37;;;;;;;;;;;19.70;77.70;;;;;;4918018;29;19962;-80
2020/12/09 13:39:04;;;;;;;;;;;19.70;77.40;;;;;;4917219;29;19990;-80
2020/12/09 13:41:34;;;;;;;;;;;19.70;77.20;;;;;;4913375;29;20597;-81
2020/12/09 13:44:00;;;;;;;;;;;19.80;76.90;;;;;;4917277;29;19918;-81
2020/12/09 13:46:27;;;;;;;;;;;19.80;77.10;;;;;;4935146;29;19906;-81
2020/12/09 13:48:54;;;;;;;;;;;19.80;76.80;;;;;;4922515;29;19911;-82
2020/12/09 13:51:21;;;;;;;;;;;19.80;77.00;;;;;;4918008;29;19910;-81
2020/12/09 13:53:53;;;;;;;;;;;19.70;77.30;;;;;;4916260;29;20350;-80
2020/12/09 13:56:26;;;;;;;;;;;19.70;76.90;;;;;;4919808;29;19926;-79
2020/12/09 13:58:53;;;;;;;;;;;19.70;76.90;;;;;;4926278;29;19910;-82
2020/12/09 14:01:20;;;;;;;;;;;19.70;77.00;;;;;;4936401;29;20354;-82
2020/12/09 14:03:46;;;;;;;;;;;19.70;76.90;;;;;;4915699;29;20270;-81
2020/12/09 14:06:19;;;;;;;;;;;19.50;77.20;;;;;;4928938;29;19966;-81
2020/12/09 14:08:45;;;;;;;;;;;19.50;77.30;;;;;;4917379;29;19907;-81
2020/12/09 14:11:15;;;;;;;;;;;19.50;78.00;;;;;;4917649;29;20345;-82
2020/12/09 14:13:43;;;;;;;;;;;19.40;77.70;;;;;;4917683;29;19907;-81
2020/12/09 14:16:10;;;;;;;;;;;19.40;78.10;;;;;;4916940;29;19922;-82
2020/12/09 14:18:36;;;;;;;;;;;19.40;77.90;;;;;;4917162;29;19926;-81
2020/12/09 14:21:03;;;;;;;;;;;19.50;78.00;;;;;;4917190;29;19986;-82
2020/12/09 14:23:30;;;;;;;;;;;19.50;77.70;;;;;;4916946;29;20374;-82